Tylertown, MS

8:49 PM CDT on July 03, 2015 (GMT -0500)
UNION CHURCH ROAD 1 MILE E OF MAGNOLIA | | Change Station
CLOSE
Current Station
Personal Weather Station
Location: Magnolia, MS
Elevation: 397 ft
Nearby Weather Stations

Elev 397 ft 31.15 °N, 90.44 °W | Updated 15 minutes ago

Partly Cloudy
Partly Cloudy
79.1 °F
Feels Like 82 °F
N
1.1
Wind Variable Wind from SSW

Today
High -- | Low -- °F
--% Chance of Precip.
Yesterday
High -- | Low -- °F
Precip. -- in
6:00 AM 8:08 PM
Waning Gibbous, 95% visible
Pressure 29.96 in
Visibility 10.0 miles
Clouds Clear
Heat Index 82 °F
Dew Point 72 °F
Humidity 79%
Rainfall 0.00 in
Snow Depth Not available.
UV 0 out of 12
Pollen 3.80 out of 12
Air Quality Not available.
Flu Activity Not available.
METAR KMCB 040053Z AUTO 23003KT 10SM CLR 28/24 A2998 RMK AO2 SLP145 T02830239

More Conditions Fewer Conditions

Pressure 29.96 in
Visibility 10.0 miles
Clouds Clear
Heat Index 82 °F
Dew Point 72 °F
Humidity 79%
Rainfall 0.00 in
Snow Depth Not available.
UV 0 out of 12
Pollen 3.80 out of 12
Air Quality Not available.
Flu Activity Not available.
METAR KMCB 040053Z AUTO 23003KT 10SM CLR 28/24 A2998 RMK AO2 SLP145 T02830239

More Conditions Fewer Conditions

10-Day Weather Forecast

×

Almanac

Astronomy

Jul. 03, 2015 Rise Set
Actual Time
Civil Twilight
Nautical Twilight
Astronomical Twilight
Moon
Length of Visible Light
Length of Day
Tomorrow will be .
, % of the Moon is Illuminated

Today's Extremes

State Highs State Lows

Community

WunderPhotos

Upload Photos

1,834,868 photos uploaded!

WunderBlogs® & News

Nearby

Air Quality

  Air Quality AQ Index Pollutant
Not available.

Snow Depth

Station Depth Elevation

Earthquake Activity

City Distance Mag. Time & Date
Minimum magnitude displayed is 2.5.

Coastal Water Temperatures

Place Temperature

Stations

Nearby Weather Stations

Station Location Temp. Windchill Dew Point Humidity Wind Precip. Elev Updated Type